sensor_id;sensor_type;location;lat;lon;timestamp;temperature;humidity
12481;DHT22;6305;48.398;11.762;2023-02-28T00:01:14;-3.20;99.90
12481;DHT22;6305;48.398;11.762;2023-02-28T00:03:43;-3.20;99.90
12481;DHT22;6305;48.398;11.762;2023-02-28T00:06:10;-3.30;99.90
12481;DHT22;6305;48.398;11.762;2023-02-28T00:08:38;-3.30;99.90
12481;DHT22;6305;48.398;11.762;2023-02-28T00:11:07;-3.40;99.90
12481;DHT22;6305;48.398;11.762;2023-02-28T00:13:35;-3.40;99.90
12481;DHT22;6305;48.398;11.762;2023-02-28T00:16:04;-3.40;99.90
12481;DHT22;6305;48.398;11.762;2023-02-28T00:18:32;-3.40;99.90
12481;DHT22;6305;48.398;11.762;2023-02-28T00:21:00;-3.60;99.90
12481;DHT22;6305;48.398;11.762;2023-02-28T00:23:28;-3.60;99.90
12481;DHT22;6305;48.398;11.762;2023-02-28T00:25:55;-3.70;99.90
12481;DHT22;6305;48.398;11.762;2023-02-28T00:28:23;-3.80;99.90
12481;DHT22;6305;48.398;11.762;2023-02-28T00:30:50;-3.90;99.90
12481;DHT22;6305;48.398;11.762;2023-02-28T00:33:17;-3.90;99.90
12481;DHT22;6305;48.398;11.762;2023-02-28T00:35:44;-4.00;99.90
12481;DHT22;6305;48.398;11.762;2023-02-28T00:38:13;-4.00;99.90
12481;DHT22;6305;48.398;11.762;2023-02-28T00:40:40;-4.00;99.90
12481;DHT22;6305;48.398;11.762;2023-02-28T00:43:07;-4.00;99.90
12481;DHT22;6305;48.398;11.762;2023-02-28T00:45:34;-4.00;99.90
12481;DHT22;6305;48.398;11.762;2023-02-28T00:48:01;-4.10;99.90
12481;DHT22;6305;48.398;11.762;2023-02-28T00:50:28;-4.10;99.90
12481;DHT22;6305;48.398;11.762;2023-02-28T00:52:56;-4.10;99.90
12481;DHT22;6305;48.398;11.762;2023-02-28T00:55:24;-4.20;99.90
12481;DHT22;6305;48.398;11.762;2023-02-28T00:57:51;-4.20;99.90
12481;DHT22;6305;48.398;11.762;2023-02-28T01:00:19;-4.30;99.90
12481;DHT22;6305;48.398;11.762;2023-02-28T01:02:46;-4.20;99.90
12481;DHT22;6305;48.398;11.762;2023-02-28T01:05:14;-4.20;99.90
12481;DHT22;6305;48.398;11.762;2023-02-28T01:07:41;-4.20;99.90
12481;DHT22;6305;48.398;11.762;2023-02-28T01:10:09;-4.20;99.90
12481;DHT22;6305;48.398;11.762;2023-02-28T01:12:37;-4.30;99.90
12481;DHT22;6305;48.398;11.762;2023-02-28T01:15:06;-4.30;99.90
12481;DHT22;6305;48.398;11.762;2023-02-28T01:17:33;-4.30;99.90
12481;DHT22;6305;48.398;11.762;2023-02-28T01:20:00;-4.20;99.90
12481;DHT22;6305;48.398;11.762;2023-02-28T01:22:27;-4.10;99.90
12481;DHT22;6305;48.398;11.762;2023-02-28T01:24:54;-4.00;99.90
12481;DHT22;6305;48.398;11.762;2023-02-28T01:27:21;-3.80;99.90
12481;DHT22;6305;48.398;11.762;2023-02-28T01:29:50;-3.70;99.90
12481;DHT22;6305;48.398;11.762;2023-02-28T01:32:17;-3.60;99.90
12481;DHT22;6305;48.398;11.762;2023-02-28T01:34:45;-3.50;99.90
12481;DHT22;6305;48.398;11.762;2023-02-28T01:37:12;-3.50;99.90
12481;DHT22;6305;48.398;11.762;2023-02-28T01:39:43;-3.50;99.90
12481;DHT22;6305;48.398;11.762;2023-02-28T01:42:10;-3.40;99.90
12481;DHT22;6305;48.398;11.762;2023-02-28T01:45:04;-3.50;99.90
12481;DHT22;6305;48.398;11.762;2023-02-28T01:47:36;-3.50;99.90
12481;DHT22;6305;48.398;11.762;2023-02-28T01:50:09;-3.40;99.90
12481;DHT22;6305;48.398;11.762;2023-02-28T01:52:38;-3.40;99.90
12481;DHT22;6305;48.398;11.762;2023-02-28T01:55:07;-3.40;99.90
12481;DHT22;6305;48.398;11.762;2023-02-28T01:57:38;-3.50;99.90
12481;DHT22;6305;48.398;11.762;2023-02-28T02:00:11;-3.60;99.90
12481;DHT22;6305;48.398;11.762;2023-02-28T02:02:42;-3.80;99.90
12481;DHT22;6305;48.398;11.762;2023-02-28T02:05:14;-4.00;99.90
12481;DHT22;6305;48.398;11.762;2023-02-28T02:07:43;-4.10;99.90
12481;DHT22;6305;48.398;11.762;2023-02-28T02:10:14;-4.10;99.90
12481;DHT22;6305;48.398;11.762;2023-02-28T02:13:05;-4.20;99.90
12481;DHT22;6305;48.398;11.762;2023-02-28T02:15:40;-4.30;99.90
12481;DHT22;6305;48.398;11.762;2023-02-28T02:18:17;-4.40;99.90
12481;DHT22;6305;48.398;11.762;2023-02-28T02:21:18;-4.40;99.90
12481;DHT22;6305;48.398;11.762;2023-02-28T02:24:19;-4.40;99.90
12481;DHT22;6305;48.398;11.762;2023-02-28T02:26:58;-4.40;99.90
12481;DHT22;6305;48.398;11.762;2023-02-28T02:29:56;-4.40;99.90
12481;DHT22;6305;48.398;11.762;2023-02-28T02:35:24;-4.40;99.90
12481;DHT22;6305;48.398;11.762;2023-02-28T02:37:57;-4.40;99.90
12481;DHT22;6305;48.398;11.762;2023-02-28T02:40:29;-4.50;99.90
12481;DHT22;6305;48.398;11.762;2023-02-28T02:43:02;-4.60;99.90
12481;DHT22;6305;48.398;11.762;2023-02-28T02:45:34;-4.60;99.90
12481;DHT22;6305;48.398;11.762;2023-02-28T02:48:06;-4.60;99.90
12481;DHT22;6305;48.398;11.762;2023-02-28T02:50:39;-4.70;99.90
12481;DHT22;6305;48.398;11.762;2023-02-28T02:53:08;-4.70;99.90
12481;DHT22;6305;48.398;11.762;2023-02-28T02:55:39;-4.60;99.90
12481;DHT22;6305;48.398;11.762;2023-02-28T02:58:10;-4.50;99.90
12481;DHT22;6305;48.398;11.762;2023-02-28T03:00:46;-4.50;99.90
12481;DHT22;6305;48.398;11.762;2023-02-28T03:03:17;-4.40;99.90
12481;DHT22;6305;48.398;11.762;2023-02-28T03:05:49;-4.40;99.90
12481;DHT22;6305;48.398;11.762;2023-02-28T03:08:17;-4.30;99.90
12481;DHT22;6305;48.398;11.762;2023-02-28T03:10:46;-4.20;99.90
12481;DHT22;6305;48.398;11.762;2023-02-28T03:13:32;-4.00;99.90
12481;DHT22;6305;48.398;11.762;2023-02-28T03:19:06;-3.60;99.90
12481;DHT22;6305;48.398;11.762;2023-02-28T03:21:42;-3.50;99.90
12481;DHT22;6305;48.398;11.762;2023-02-28T03:24:13;-3.30;99.90
12481;DHT22;6305;48.398;11.762;2023-02-28T03:26:44;-3.20;99.90
12481;DHT22;6305;48.398;11.762;2023-02-28T03:29:15;-3.10;99.90
12481;DHT22;6305;48.398;11.762;2023-02-28T03:31:49;-3.00;99.90
12481;DHT22;6305;48.398;11.762;2023-02-28T03:34:21;-3.00;99.90
12481;DHT22;6305;48.398;11.762;2023-02-28T03:36:53;-2.90;99.90
12481;DHT22;6305;48.398;11.762;2023-02-28T03:39:24;-2.80;99.90
12481;DHT22;6305;48.398;11.762;2023-02-28T03:41:57;-2.70;99.90
12481;DHT22;6305;48.398;11.762;2023-02-28T03:44:28;-2.70;99.90
12481;DHT22;6305;48.398;11.762;2023-02-28T03:47:00;-2.70;99.90
12481;DHT22;6305;48.398;11.762;2023-02-28T03:49:31;-2.70;99.90
12481;DHT22;6305;48.398;11.762;2023-02-28T03:52:02;-2.70;99.90
12481;DHT22;6305;48.398;11.762;2023-02-28T03:54:33;-2.60;99.90
12481;DHT22;6305;48.398;11.762;2023-02-28T03:57:05;-2.70;99.90
12481;DHT22;6305;48.398;11.762;2023-02-28T03:59:40;-2.70;99.90
12481;DHT22;6305;48.398;11.762;2023-02-28T04:02:09;-2.70;99.90
12481;DHT22;6305;48.398;11.762;2023-02-28T04:04:36;-2.70;99.90
12481;DHT22;6305;48.398;11.762;2023-02-28T04:07:07;-2.70;99.90
12481;DHT22;6305;48.398;11.762;2023-02-28T04:09:34;-2.70;99.90
12481;DHT22;6305;48.398;11.762;2023-02-28T04:12:01;-2.80;99.90
12481;DHT22;6305;48.398;11.762;2023-02-28T04:14:28;-2.70;99.90
12481;DHT22;6305;48.398;11.762;2023-02-28T04:16:55;-2.70;99.90
12481;DHT22;6305;48.398;11.762;2023-02-28T04:19:22;-2.80;99.90
12481;DHT22;6305;48.398;11.762;2023-02-28T04:21:51;-2.70;99.90
12481;DHT22;6305;48.398;11.762;2023-02-28T04:24:21;-2.80;99.90
12481;DHT22;6305;48.398;11.762;2023-02-28T04:26:51;-2.70;99.90
12481;DHT22;6305;48.398;11.762;2023-02-28T04:29:20;-2.80;99.90
12481;DHT22;6305;48.398;11.762;2023-02-28T04:31:47;-2.70;99.90
12481;DHT22;6305;48.398;11.762;2023-02-28T04:34:14;-2.70;99.90
12481;DHT22;6305;48.398;11.762;2023-02-28T04:36:42;-2.80;99.90
12481;DHT22;6305;48.398;11.762;2023-02-28T04:39:09;-2.80;99.90
12481;DHT22;6305;48.398;11.762;2023-02-28T04:41:37;-2.80;99.90
12481;DHT22;6305;48.398;11.762;2023-02-28T04:44:04;-2.80;99.90
12481;DHT22;6305;48.398;11.762;2023-02-28T04:46:31;-2.80;99.90
12481;DHT22;6305;48.398;11.762;2023-02-28T04:48:58;-2.90;99.90
12481;DHT22;6305;48.398;11.762;2023-02-28T04:51:25;-2.90;99.90
12481;DHT22;6305;48.398;11.762;2023-02-28T04:53:52;-3.00;99.90
12481;DHT22;6305;48.398;11.762;2023-02-28T04:56:19;-3.00;99.90
12481;DHT22;6305;48.398;11.762;2023-02-28T04:58:48;-3.10;99.90
12481;DHT22;6305;48.398;11.762;2023-02-28T05:01:19;-3.20;99.90
12481;DHT22;6305;48.398;11.762;2023-02-28T05:03:46;-3.20;99.90
12481;DHT22;6305;48.398;11.762;2023-02-28T05:06:14;-3.30;99.90
12481;DHT22;6305;48.398;11.762;2023-02-28T05:08:42;-3.30;99.90
12481;DHT22;6305;48.398;11.762;2023-02-28T05:11:15;-3.30;99.90
12481;DHT22;6305;48.398;11.762;2023-02-28T05:13:42;-3.40;99.90
12481;DHT22;6305;48.398;11.762;2023-02-28T05:16:10;-3.40;99.90
12481;DHT22;6305;48.398;11.762;2023-02-28T05:18:37;-3.50;99.90
12481;DHT22;6305;48.398;11.762;2023-02-28T05:21:04;-3.50;99.90
12481;DHT22;6305;48.398;11.762;2023-02-28T05:23:32;-3.50;99.90
12481;DHT22;6305;48.398;11.762;2023-02-28T05:25:59;-3.60;99.90
12481;DHT22;6305;48.398;11.762;2023-02-28T05:28:26;-3.60;99.90
12481;DHT22;6305;48.398;11.762;2023-02-28T05:30:53;-3.60;99.90
12481;DHT22;6305;48.398;11.762;2023-02-28T05:33:21;-3.70;99.90
12481;DHT22;6305;48.398;11.762;2023-02-28T05:35:48;-3.70;99.90
12481;DHT22;6305;48.398;11.762;2023-02-28T05:38:15;-3.80;99.90
12481;DHT22;6305;48.398;11.762;2023-02-28T05:40:43;-3.80;99.90
12481;DHT22;6305;48.398;11.762;2023-02-28T05:43:11;-3.80;99.90
12481;DHT22;6305;48.398;11.762;2023-02-28T05:45:38;-3.80;99.90
12481;DHT22;6305;48.398;11.762;2023-02-28T05:48:05;-3.80;99.90
12481;DHT22;6305;48.398;11.762;2023-02-28T05:50:34;-3.80;99.90
12481;DHT22;6305;48.398;11.762;2023-02-28T05:53:01;-3.80;99.90
12481;DHT22;6305;48.398;11.762;2023-02-28T05:55:28;-3.80;99.90
12481;DHT22;6305;48.398;11.762;2023-02-28T05:57:55;-3.70;99.90
12481;DHT22;6305;48.398;11.762;2023-02-28T06:00:23;-3.60;99.90
12481;DHT22;6305;48.398;11.762;2023-02-28T06:02:50;-3.50;99.90
12481;DHT22;6305;48.398;11.762;2023-02-28T06:05:22;-3.50;99.90
12481;DHT22;6305;48.398;11.762;2023-02-28T06:07:50;-3.60;99.90
12481;DHT22;6305;48.398;11.762;2023-02-28T06:10:17;-3.60;99.90
12481;DHT22;6305;48.398;11.762;2023-02-28T06:12:45;-3.60;99.90
12481;DHT22;6305;48.398;11.762;2023-02-28T06:15:14;-3.60;99.90
12481;DHT22;6305;48.398;11.762;2023-02-28T06:17:43;-3.60;99.90
12481;DHT22;6305;48.398;11.762;2023-02-28T06:20:11;-3.60;99.90
12481;DHT22;6305;48.398;11.762;2023-02-28T06:22:39;-3.60;99.90
12481;DHT22;6305;48.398;11.762;2023-02-28T06:25:09;-3.60;99.90
12481;DHT22;6305;48.398;11.762;2023-02-28T06:27:36;-3.60;99.90
12481;DHT22;6305;48.398;11.762;2023-02-28T06:30:03;-3.50;99.90
12481;DHT22;6305;48.398;11.762;2023-02-28T06:32:30;-3.50;99.90
12481;DHT22;6305;48.398;11.762;2023-02-28T06:34:57;-3.40;99.90
12481;DHT22;6305;48.398;11.762;2023-02-28T06:37:24;-3.40;99.90
12481;DHT22;6305;48.398;11.762;2023-02-28T06:39:53;-3.30;99.90
12481;DHT22;6305;48.398;11.762;2023-02-28T06:42:23;-3.20;99.90
12481;DHT22;6305;48.398;11.762;2023-02-28T06:44:54;-3.10;99.90
12481;DHT22;6305;48.398;11.762;2023-02-28T06:47:22;-3.10;99.90
12481;DHT22;6305;48.398;11.762;2023-02-28T06:49:49;-3.00;99.90
12481;DHT22;6305;48.398;11.762;2023-02-28T06:52:16;-2.90;99.90
12481;DHT22;6305;48.398;11.762;2023-02-28T06:54:43;-2.80;99.90
12481;DHT22;6305;48.398;11.762;2023-02-28T06:57:10;-2.70;99.90
12481;DHT22;6305;48.398;11.762;2023-02-28T06:59:38;-2.50;99.90
12481;DHT22;6305;48.398;11.762;2023-02-28T07:02:05;-2.20;99.90
12481;DHT22;6305;48.398;11.762;2023-02-28T07:04:33;-2.00;99.90
12481;DHT22;6305;48.398;11.762;2023-02-28T07:07:00;-1.70;99.90
12481;DHT22;6305;48.398;11.762;2023-02-28T07:09:26;-1.20;99.90
12481;DHT22;6305;48.398;11.762;2023-02-28T07:11:55;-0.80;99.90
12481;DHT22;6305;48.398;11.762;2023-02-28T07:14:22;-0.40;99.90
12481;DHT22;6305;48.398;11.762;2023-02-28T07:16:51;0.00;99.90
12481;DHT22;6305;48.398;11.762;2023-02-28T07:19:18;0.50;99.90
12481;DHT22;6305;48.398;11.762;2023-02-28T07:21:45;1.10;99.90
12481;DHT22;6305;48.398;11.762;2023-02-28T07:24:11;2.00;99.90
12481;DHT22;6305;48.398;11.762;2023-02-28T07:26:41;2.90;98.90
12481;DHT22;6305;48.398;11.762;2023-02-28T07:29:08;3.70;95.00
12481;DHT22;6305;48.398;11.762;2023-02-28T07:31:35;4.70;90.90
12481;DHT22;6305;48.398;11.762;2023-02-28T07:34:03;6.30;79.30
12481;DHT22;6305;48.398;11.762;2023-02-28T07:36:30;7.60;69.90
12481;DHT22;6305;48.398;11.762;2023-02-28T07:38:58;8.70;63.60
12481;DHT22;6305;48.398;11.762;2023-02-28T07:41:25;8.80;57.90
12481;DHT22;6305;48.398;11.762;2023-02-28T07:43:54;9.40;55.80
12481;DHT22;6305;48.398;11.762;2023-02-28T07:46:21;10.30;53.10
12481;DHT22;6305;48.398;11.762;2023-02-28T07:48:48;10.90;50.50
12481;DHT22;6305;48.398;11.762;2023-02-28T07:51:16;11.40;49.00
12481;DHT22;6305;48.398;11.762;2023-02-28T07:53:43;11.40;47.30
12481;DHT22;6305;48.398;11.762;2023-02-28T07:56:10;11.30;46.20
12481;DHT22;6305;48.398;11.762;2023-02-28T07:58:37;10.80;45.60
12481;DHT22;6305;48.398;11.762;2023-02-28T08:01:06;10.40;45.40
12481;DHT22;6305;48.398;11.762;2023-02-28T08:03:33;10.80;46.30
12481;DHT22;6305;48.398;11.762;2023-02-28T08:06:01;11.90;45.30
12481;DHT22;6305;48.398;11.762;2023-02-28T08:08:30;12.30;43.00
12481;DHT22;6305;48.398;11.762;2023-02-28T08:10:58;12.80;41.90
12481;DHT22;6305;48.398;11.762;2023-02-28T08:13:26;13.40;42.30
12481;DHT22;6305;48.398;11.762;2023-02-28T08:15:53;14.00;40.90
12481;DHT22;6305;48.398;11.762;2023-02-28T08:18:20;14.50;39.00
12481;DHT22;6305;48.398;11.762;2023-02-28T08:20:48;15.00;38.60
12481;DHT22;6305;48.398;11.762;2023-02-28T08:23:15;15.10;36.90
12481;DHT22;6305;48.398;11.762;2023-02-28T08:25:43;15.20;36.20
12481;DHT22;6305;48.398;11.762;2023-02-28T08:28:10;15.70;36.60
12481;DHT22;6305;48.398;11.762;2023-02-28T08:30:37;16.20;35.60
12481;DHT22;6305;48.398;11.762;2023-02-28T08:33:06;16.20;34.40
12481;DHT22;6305;48.398;11.762;2023-02-28T08:35:35;16.10;33.90
12481;DHT22;6305;48.398;11.762;2023-02-28T08:38:03;15.60;33.20
12481;DHT22;6305;48.398;11.762;2023-02-28T08:40:29;15.60;34.60
12481;DHT22;6305;48.398;11.762;2023-02-28T08:42:58;15.90;33.80
12481;DHT22;6305;48.398;11.762;2023-02-28T08:45:25;16.30;33.80
12481;DHT22;6305;48.398;11.762;2023-02-28T08:47:54;16.40;33.30
12481;DHT22;6305;48.398;11.762;2023-02-28T08:50:21;16.50;32.50
12481;DHT22;6305;48.398;11.762;2023-02-28T08:52:48;16.30;32.40
12481;DHT22;6305;48.398;11.762;2023-02-28T08:55:15;16.30;32.60
12481;DHT22;6305;48.398;11.762;2023-02-28T08:57:42;16.20;32.60
12481;DHT22;6305;48.398;11.762;2023-02-28T09:00:12;16.70;32.80
12481;DHT22;6305;48.398;11.762;2023-02-28T09:02:40;17.10;32.60
12481;DHT22;6305;48.398;11.762;2023-02-28T09:05:08;17.40;31.90
12481;DHT22;6305;48.398;11.762;2023-02-28T09:07:36;17.60;31.10
12481;DHT22;6305;48.398;11.762;2023-02-28T09:10:03;17.60;31.10
12481;DHT22;6305;48.398;11.762;2023-02-28T09:12:33;17.90;31.10
12481;DHT22;6305;48.398;11.762;2023-02-28T09:15:01;17.80;30.50
12481;DHT22;6305;48.398;11.762;2023-02-28T09:17:30;17.90;30.90
12481;DHT22;6305;48.398;11.762;2023-02-28T09:19:57;17.90;30.90
12481;DHT22;6305;48.398;11.762;2023-02-28T09:22:24;18.50;30.80
12481;DHT22;6305;48.398;11.762;2023-02-28T09:24:51;19.00;30.20
12481;DHT22;6305;48.398;11.762;2023-02-28T09:27:18;19.10;29.20
12481;DHT22;6305;48.398;11.762;2023-02-28T09:29:45;19.10;29.30
12481;DHT22;6305;48.398;11.762;2023-02-28T09:32:11;19.40;29.40
12481;DHT22;6305;48.398;11.762;2023-02-28T09:34:40;17.70;28.40
12481;DHT22;6305;48.398;11.762;2023-02-28T09:37:07;17.40;30.10
12481;DHT22;6305;48.398;11.762;2023-02-28T09:39:34;17.10;30.00
12481;DHT22;6305;48.398;11.762;2023-02-28T09:42:02;16.00;29.90
12481;DHT22;6305;48.398;11.762;2023-02-28T09:44:33;16.50;31.10
12481;DHT22;6305;48.398;11.762;2023-02-28T09:47:07;16.80;30.40
12481;DHT22;6305;48.398;11.762;2023-02-28T09:49:42;17.00;30.50
12481;DHT22;6305;48.398;11.762;2023-02-28T09:52:15;16.60;30.80
12481;DHT22;6305;48.398;11.762;2023-02-28T09:54:43;16.50;31.30
12481;DHT22;6305;48.398;11.762;2023-02-28T09:57:17;17.20;31.10
12481;DHT22;6305;48.398;11.762;2023-02-28T09:59:54;17.00;30.10
12481;DHT22;6305;48.398;11.762;2023-02-28T10:02:41;17.50;30.70
12481;DHT22;6305;48.398;11.762;2023-02-28T10:05:15;18.30;30.60
12481;DHT22;6305;48.398;11.762;2023-02-28T10:07:54;19.00;29.90
12481;DHT22;6305;48.398;11.762;2023-02-28T10:10:29;19.80;29.60
12481;DHT22;6305;48.398;11.762;2023-02-28T10:12:59;20.30;28.70
12481;DHT22;6305;48.398;11.762;2023-02-28T10:15:30;20.70;28.50
12481;DHT22;6305;48.398;11.762;2023-02-28T10:18:00;21.10;28.10
12481;DHT22;6305;48.398;11.762;2023-02-28T10:20:33;21.50;27.30
12481;DHT22;6305;48.398;11.762;2023-02-28T10:23:05;21.90;27.40
12481;DHT22;6305;48.398;11.762;2023-02-28T10:25:37;22.40;27.10
12481;DHT22;6305;48.398;11.762;2023-02-28T10:28:10;21.50;25.50
12481;DHT22;6305;48.398;11.762;2023-02-28T10:30:40;21.40;26.50
12481;DHT22;6305;48.398;11.762;2023-02-28T10:33:18;20.50;26.20
12481;DHT22;6305;48.398;11.762;2023-02-28T10:35:48;19.10;26.90
12481;DHT22;6305;48.398;11.762;2023-02-28T10:38:18;18.50;27.90
12481;DHT22;6305;48.398;11.762;2023-02-28T10:40:45;19.40;28.70
12481;DHT22;6305;48.398;11.762;2023-02-28T10:43:21;19.80;27.70
12481;DHT22;6305;48.398;11.762;2023-02-28T10:46:01;19.80;27.30
12481;DHT22;6305;48.398;11.762;2023-02-28T10:48:32;18.80;27.20
12481;DHT22;6305;48.398;11.762;2023-02-28T10:51:01;19.00;28.00
12481;DHT22;6305;48.398;11.762;2023-02-28T10:53:36;19.10;27.90
12481;DHT22;6305;48.398;11.762;2023-02-28T10:56:06;18.90;28.00
12481;DHT22;6305;48.398;11.762;2023-02-28T10:58:47;19.10;28.10
12481;DHT22;6305;48.398;11.762;2023-02-28T11:01:16;19.80;28.00
12481;DHT22;6305;48.398;11.762;2023-02-28T11:03:44;20.20;27.50
12481;DHT22;6305;48.398;11.762;2023-02-28T11:06:17;20.20;27.30
12481;DHT22;6305;48.398;11.762;2023-02-28T11:08:46;20.30;27.10
12481;DHT22;6305;48.398;11.762;2023-02-28T11:11:14;20.20;26.80
12481;DHT22;6305;48.398;11.762;2023-02-28T11:13:43;20.20;27.00
12481;DHT22;6305;48.398;11.762;2023-02-28T11:16:12;20.40;27.00
12481;DHT22;6305;48.398;11.762;2023-02-28T11:18:43;20.50;27.10
12481;DHT22;6305;48.398;11.762;2023-02-28T11:21:19;20.40;26.60
12481;DHT22;6305;48.398;11.762;2023-02-28T11:23:49;20.00;26.80
12481;DHT22;6305;48.398;11.762;2023-02-28T11:26:16;19.60;27.10
12481;DHT22;6305;48.398;11.762;2023-02-28T11:29:09;18.50;26.70
12481;DHT22;6305;48.398;11.762;2023-02-28T11:31:36;16.80;27.80
12481;DHT22;6305;48.398;11.762;2023-02-28T11:34:22;16.70;29.50
12481;DHT22;6305;48.398;11.762;2023-02-28T11:36:53;17.10;29.80
12481;DHT22;6305;48.398;11.762;2023-02-28T11:39:20;16.90;29.20
12481;DHT22;6305;48.398;11.762;2023-02-28T11:42:02;16.80;29.50
12481;DHT22;6305;48.398;11.762;2023-02-28T11:44:43;17.20;29.60
12481;DHT22;6305;48.398;11.762;2023-02-28T11:47:17;17.10;29.10
12481;DHT22;6305;48.398;11.762;2023-02-28T11:49:52;17.30;29.60
12481;DHT22;6305;48.398;11.762;2023-02-28T11:52:34;17.70;29.10
12481;DHT22;6305;48.398;11.762;2023-02-28T11:55:13;18.40;29.60
12481;DHT22;6305;48.398;11.762;2023-02-28T11:57:53;19.50;29.10
12481;DHT22;6305;48.398;11.762;2023-02-28T12:00:35;20.40;27.90
12481;DHT22;6305;48.398;11.762;2023-02-28T12:03:15;21.40;27.60
12481;DHT22;6305;48.398;11.762;2023-02-28T12:05:46;22.50;26.90
12481;DHT22;6305;48.398;11.762;2023-02-28T12:08:29;23.00;25.80
12481;DHT22;6305;48.398;11.762;2023-02-28T12:11:11;23.30;25.30
12481;DHT22;6305;48.398;11.762;2023-02-28T12:13:50;23.80;24.90
12481;DHT22;6305;48.398;11.762;2023-02-28T12:16:48;24.10;24.30
12481;DHT22;6305;48.398;11.762;2023-02-28T12:19:21;23.80;24.20
12481;DHT22;6305;48.398;11.762;2023-02-28T12:22:00;24.20;24.60
12481;DHT22;6305;48.398;11.762;2023-02-28T12:24:44;24.20;23.80
12481;DHT22;6305;48.398;11.762;2023-02-28T12:27:14;23.80;23.80
12481;DHT22;6305;48.398;11.762;2023-02-28T12:29:46;24.00;23.80
12481;DHT22;6305;48.398;11.762;2023-02-28T12:32:18;24.30;24.10
12481;DHT22;6305;48.398;11.762;2023-02-28T12:34:48;25.00;24.70
12481;DHT22;6305;48.398;11.762;2023-02-28T12:37:20;24.80;23.10
12481;DHT22;6305;48.398;11.762;2023-02-28T12:39:54;24.50;23.30
12481;DHT22;6305;48.398;11.762;2023-02-28T12:42:27;24.40;23.30
12481;DHT22;6305;48.398;11.762;2023-02-28T12:44:59;24.40;23.10
12481;DHT22;6305;48.398;11.762;2023-02-28T12:47:26;24.10;23.50
12481;DHT22;6305;48.398;11.762;2023-02-28T12:49:56;23.90;23.10
12481;DHT22;6305;48.398;11.762;2023-02-28T12:52:34;23.60;23.30
12481;DHT22;6305;48.398;11.762;2023-02-28T12:55:11;23.00;23.30
12481;DHT22;6305;48.398;11.762;2023-02-28T12:57:41;23.10;24.20
12481;DHT22;6305;48.398;11.762;2023-02-28T13:00:13;23.60;24.40
12481;DHT22;6305;48.398;11.762;2023-02-28T13:02:54;24.30;23.90
12481;DHT22;6305;48.398;11.762;2023-02-28T13:05:52;24.90;23.40
12481;DHT22;6305;48.398;11.762;2023-02-28T13:08:51;25.20;22.90
12481;DHT22;6305;48.398;11.762;2023-02-28T13:11:28;24.90;22.80
12481;DHT22;6305;48.398;11.762;2023-02-28T13:13:58;24.90;23.10
12481;DHT22;6305;48.398;11.762;2023-02-28T13:16:25;25.00;22.80
12481;DHT22;6305;48.398;11.762;2023-02-28T13:19:09;25.00;22.60
12481;DHT22;6305;48.398;11.762;2023-02-28T13:21:42;24.80;22.80
12481;DHT22;6305;48.398;11.762;2023-02-28T13:24:10;25.00;22.90
12481;DHT22;6305;48.398;11.762;2023-02-28T13:29:42;25.10;22.60
12481;DHT22;6305;48.398;11.762;2023-02-28T13:32:29;25.10;22.90
12481;DHT22;6305;48.398;11.762;2023-02-28T13:35:13;24.90;22.80
12481;DHT22;6305;48.398;11.762;2023-02-28T13:37:42;24.90;22.80
12481;DHT22;6305;48.398;11.762;2023-02-28T13:40:31;24.10;22.60
12481;DHT22;6305;48.398;11.762;2023-02-28T13:43:07;23.10;23.40
12481;DHT22;6305;48.398;11.762;2023-02-28T13:45:36;23.10;23.70
12481;DHT22;6305;48.398;11.762;2023-02-28T13:48:16;23.10;23.80
12481;DHT22;6305;48.398;11.762;2023-02-28T13:50:44;23.10;23.90
12481;DHT22;6305;48.398;11.762;2023-02-28T13:53:38;22.80;23.80
12481;DHT22;6305;48.398;11.762;2023-02-28T13:56:18;22.80;23.90
12481;DHT22;6305;48.398;11.762;2023-02-28T13:58:53;22.70;24.50
12481;DHT22;6305;48.398;11.762;2023-02-28T14:01:42;22.80;24.30
12481;DHT22;6305;48.398;11.762;2023-02-28T14:04:38;23.00;24.20
12481;DHT22;6305;48.398;11.762;2023-02-28T14:07:09;22.60;23.70
12481;DHT22;6305;48.398;11.762;2023-02-28T14:09:54;22.50;24.30
12481;DHT22;6305;48.398;11.762;2023-02-28T14:13:01;21.60;24.20
12481;DHT22;6305;48.398;11.762;2023-02-28T14:15:55;20.40;25.10
12481;DHT22;6305;48.398;11.762;2023-02-28T14:18:29;19.10;26.20
12481;DHT22;6305;48.398;11.762;2023-02-28T14:21:04;18.70;27.00
12481;DHT22;6305;48.398;11.762;2023-02-28T14:24:01;18.40;27.10
12481;DHT22;6305;48.398;11.762;2023-02-28T14:26:45;18.30;27.40
12481;DHT22;6305;48.398;11.762;2023-02-28T14:29:28;18.00;27.40
12481;DHT22;6305;48.398;11.762;2023-02-28T14:32:03;17.70;27.70
12481;DHT22;6305;48.398;11.762;2023-02-28T14:34:42;17.40;28.00
12481;DHT22;6305;48.398;11.762;2023-02-28T14:37:15;17.00;28.00
12481;DHT22;6305;48.398;11.762;2023-02-28T14:39:46;17.00;29.00
12481;DHT22;6305;48.398;11.762;2023-02-28T14:42:28;17.20;28.80
12481;DHT22;6305;48.398;11.762;2023-02-28T14:44:55;17.10;28.80
12481;DHT22;6305;48.398;11.762;2023-02-28T14:47:25;17.00;28.90
12481;DHT22;6305;48.398;11.762;2023-02-28T14:49:54;16.70;28.90
12481;DHT22;6305;48.398;11.762;2023-02-28T14:52:22;16.80;29.40
12481;DHT22;6305;48.398;11.762;2023-02-28T14:54:53;16.90;28.60
12481;DHT22;6305;48.398;11.762;2023-02-28T14:57:22;16.90;29.00
12481;DHT22;6305;48.398;11.762;2023-02-28T14:59:58;16.90;29.00
12481;DHT22;6305;48.398;11.762;2023-02-28T15:02:29;16.50;29.30
12481;DHT22;6305;48.398;11.762;2023-02-28T15:05:00;16.50;29.90
12481;DHT22;6305;48.398;11.762;2023-02-28T15:07:28;16.70;30.10
12481;DHT22;6305;48.398;11.762;2023-02-28T15:10:17;16.90;29.90
12481;DHT22;6305;48.398;11.762;2023-02-28T15:12:51;16.70;29.30
12481;DHT22;6305;48.398;11.762;2023-02-28T15:15:20;16.30;29.40
12481;DHT22;6305;48.398;11.762;2023-02-28T15:17:50;16.00;29.90
12481;DHT22;6305;48.398;11.762;2023-02-28T15:20:20;15.50;29.90
12481;DHT22;6305;48.398;11.762;2023-02-28T15:22:50;15.30;30.90
12481;DHT22;6305;48.398;11.762;2023-02-28T15:25:20;15.20;30.80
12481;DHT22;6305;48.398;11.762;2023-02-28T15:27:50;14.90;31.20
12481;DHT22;6305;48.398;11.762;2023-02-28T15:30:21;14.50;31.30
12481;DHT22;6305;48.398;11.762;2023-02-28T15:33:18;13.90;31.70
12481;DHT22;6305;48.398;11.762;2023-02-28T15:35:46;12.90;32.30
12481;DHT22;6305;48.398;11.762;2023-02-28T15:38:17;11.50;33.90
12481;DHT22;6305;48.398;11.762;2023-02-28T15:40:50;10.30;36.10
12481;DHT22;6305;48.398;11.762;2023-02-28T15:43:25;9.20;38.80
12481;DHT22;6305;48.398;11.762;2023-02-28T15:45:56;8.30;40.80
12481;DHT22;6305;48.398;11.762;2023-02-28T15:48:27;7.50;42.40
12481;DHT22;6305;48.398;11.762;2023-02-28T15:50:57;6.80;44.10
12481;DHT22;6305;48.398;11.762;2023-02-28T15:53:31;6.30;45.80
12481;DHT22;6305;48.398;11.762;2023-02-28T15:56:00;5.80;46.80
12481;DHT22;6305;48.398;11.762;2023-02-28T15:58:28;5.50;47.90
12481;DHT22;6305;48.398;11.762;2023-02-28T16:01:07;5.30;48.90
12481;DHT22;6305;48.398;11.762;2023-02-28T16:03:40;5.00;50.10
12481;DHT22;6305;48.398;11.762;2023-02-28T16:06:22;4.80;50.90
12481;DHT22;6305;48.398;11.762;2023-02-28T16:08:51;4.60;51.90